Capitol Logistics 7411

Operating for MZN



KAFW
Fort Worth Alliance Airport
Fort Worth, Texas
KSEA
Seattle-Tacoma International Airport
Seattle, Washington

Activity Log

Date Flight Route Aircraft Duration
03/25/2021 CPX286 SWABR5 HUDAD PNH ALS JNC TCH TWF BKE PDT CHINS3 B763 3h 54m
04/14/2020 CPX286 SWABR5 HUDAD PNH ALS JNC TCH TWF BKE PDT CHINS3 B763 4h 19m

Route Details

Aircraft Information
Group: North America Fleet
Types: B738,B752,B762,B763
Route Data
Distance: 1428nm
Duration: 3h 39m
Recm'd Route: SWABR7 HUDAD PNH J17 PUB EKR OCS PIH PDT CHINS4
Origin Wx: KAFW 160853Z 32004KT 10SM CLR 09/06 A3030 RMK AO2 SLP257 T00940056 50008
Dest. Wx: KSEA 160853Z 16005KT 10SM FEW065 BKN090 OVC110 13/09 A3010 RMK AO2 RAE0756 SLP198 P0000 60000 T01280089 56008
Notes:

Financial History
Total Freight: 227,350lbs
Average Load: 113,675lbs/flt
Fuel Used: 87,172lbs
Avg. Fuel Used: 43,586lbs/flt
Fuel Expense: $70,609
Avg. Fuel Expense: $35,305
Avg. Fuel Cost: $0.81/lbs
Total Gross Income: $322,837
Pilot Pay: $478
Total Expenses: $34,970
Total Revenue: $215,290
Average Revenue: $161,418.50